createdAt,value
2023-01-23T00:02:12.482Z,1.20
2023-01-23T00:07:14.330Z,1.20
2023-01-23T00:12:16.714Z,1.20
2023-01-23T00:17:18.473Z,1.30
2023-01-23T00:22:20.329Z,1.20
2023-01-23T00:27:22.239Z,1.20
2023-01-23T00:32:24.157Z,1.20
2023-01-23T00:37:25.947Z,1.20
2023-01-23T00:42:27.714Z,1.20
2023-01-23T00:47:29.549Z,1.20
2023-01-23T00:52:33.161Z,1.20
2023-01-23T00:57:35.080Z,1.20
2023-01-23T01:02:37.002Z,1.20
2023-01-23T01:07:39.052Z,1.20
2023-01-23T01:12:41.510Z,1.30
2023-01-23T01:17:43.333Z,1.20
2023-01-23T01:22:45.105Z,1.20
2023-01-23T01:27:47.234Z,1.20
2023-01-23T01:32:49.124Z,1.20
2023-01-23T01:37:51.597Z,1.20
2023-01-23T01:42:59.983Z,1.30
2023-01-23T01:48:01.798Z,1.30
2023-01-23T01:53:03.788Z,1.30
2023-01-23T01:58:06.074Z,1.30
2023-01-23T02:03:08.214Z,1.40
2023-01-23T02:08:26.553Z,1.30
2023-01-23T02:13:32.604Z,1.30
2023-01-23T02:18:37.441Z,1.20
2023-01-23T02:24:04.421Z,1.30
2023-01-23T02:29:06.745Z,1.30
2023-01-23T02:34:11.818Z,1.30
2023-01-23T02:39:20.454Z,1.30
2023-01-23T02:44:28.705Z,1.30
2023-01-23T02:49:30.653Z,1.30
2023-01-23T02:54:32.861Z,1.30
2023-01-23T02:59:53.110Z,1.30
2023-01-23T03:04:54.884Z,1.30
2023-01-23T03:09:56.758Z,1.30
2023-01-23T03:14:58.952Z,1.30
2023-01-23T03:20:01.597Z,1.30
2023-01-23T03:25:03.531Z,1.30
2023-01-23T03:30:15.860Z,1.30
2023-01-23T03:35:21.889Z,1.40
2023-01-23T03:40:43.777Z,1.30
2023-01-23T03:45:45.864Z,1.40
2023-01-23T03:50:47.660Z,1.30
2023-01-23T03:55:49.496Z,1.40
2023-01-23T04:00:51.497Z,1.40
2023-01-23T04:06:00.084Z,1.40
2023-01-23T04:11:06.438Z,1.30
2023-01-23T04:16:08.475Z,1.30
2023-01-23T04:21:10.891Z,1.40
2023-01-23T04:26:13.754Z,1.40
2023-01-23T04:31:15.628Z,1.40
2023-01-23T04:36:17.579Z,1.40
2023-01-23T04:41:24.793Z,1.30
2023-01-23T04:46:26.524Z,1.30
2023-01-23T04:51:28.422Z,1.40
2023-01-23T04:56:30.259Z,1.30
2023-01-23T05:01:32.291Z,1.40
2023-01-23T05:06:34.074Z,1.40
2023-01-23T05:11:35.850Z,1.40
2023-01-23T05:16:37.645Z,1.40
2023-01-23T05:21:39.487Z,1.40
2023-01-23T05:26:41.274Z,1.40
2023-01-23T05:31:43.178Z,1.30
2023-01-23T05:36:45.013Z,1.40
2023-01-23T05:41:46.825Z,1.40
2023-01-23T05:46:48.634Z,1.50
2023-01-23T05:51:50.411Z,1.50
2023-01-23T05:56:52.335Z,1.50
2023-01-23T06:01:54.124Z,1.50
2023-01-23T06:06:56.005Z,1.50
2023-01-23T06:11:57.799Z,1.50
2023-01-23T06:16:59.746Z,1.40
2023-01-23T06:22:01.570Z,1.50
2023-01-23T06:27:08.157Z,1.50
2023-01-23T06:32:09.967Z,1.60
2023-01-23T06:37:11.738Z,1.50
2023-01-23T06:42:13.683Z,1.50
2023-01-23T06:47:16.774Z,1.60
2023-01-23T06:52:18.781Z,1.50
2023-01-23T06:57:21.334Z,1.60
2023-01-23T07:02:23.387Z,1.50
2023-01-23T07:07:25.167Z,1.60
2023-01-23T07:12:28.413Z,1.60
2023-01-23T07:17:30.453Z,1.60
2023-01-23T07:22:32.386Z,1.60
2023-01-23T07:27:34.232Z,1.70
2023-01-23T07:32:36.073Z,1.80
2023-01-23T07:37:37.898Z,1.70
2023-01-23T07:42:41.882Z,1.60
2023-01-23T07:47:45.606Z,1.70
2023-01-23T07:52:47.704Z,1.70
2023-01-23T07:57:49.496Z,1.70
2023-01-23T08:02:51.574Z,1.70
2023-01-23T08:08:07.362Z,1.80
2023-01-23T08:13:17.162Z,1.80
2023-01-23T08:18:18.970Z,1.80
2023-01-23T08:23:20.858Z,1.80
2023-01-23T08:28:23.382Z,1.80
2023-01-23T08:33:25.130Z,1.80
2023-01-23T08:38:27.320Z,1.80
2023-01-23T08:43:29.386Z,1.80
2023-01-23T08:48:31.288Z,2.00
2023-01-23T08:53:34.510Z,1.90
2023-01-23T08:58:36.311Z,1.90
2023-01-23T09:03:38.291Z,2.00
2023-01-23T09:08:40.398Z,1.90
2023-01-23T09:13:42.529Z,2.00
2023-01-23T09:18:44.453Z,2.10
2023-01-23T09:23:46.221Z,2.10
2023-01-23T09:28:48.055Z,2.20
2023-01-23T09:33:49.979Z,2.30
2023-01-23T09:38:51.825Z,2.40
2023-01-23T09:43:57.944Z,2.30
2023-01-23T09:49:05.044Z,2.20
2023-01-23T09:54:28.939Z,2.30
2023-01-23T09:59:54.012Z,2.40
2023-01-23T10:05:03.078Z,2.40
2023-01-23T10:10:34.344Z,2.40
2023-01-23T10:15:49.157Z,2.50
2023-01-23T10:21:08.465Z,2.50
2023-01-23T10:26:18.534Z,2.50
2023-01-23T10:31:28.053Z,2.50
2023-01-23T10:36:56.264Z,2.50
2023-01-23T10:42:02.347Z,2.50
2023-01-23T10:47:16.092Z,2.50
2023-01-23T10:52:38.086Z,2.60
2023-01-23T10:57:49.204Z,2.60
2023-01-23T11:02:51.312Z,2.60
2023-01-23T11:07:56.144Z,2.60
2023-01-23T11:13:00.673Z,2.60
2023-01-23T11:18:02.625Z,2.60
2023-01-23T11:23:13.444Z,2.70
2023-01-23T11:28:26.950Z,2.70
2023-01-23T11:33:56.750Z,2.80
2023-01-23T11:39:07.734Z,2.80
2023-01-23T11:44:23.323Z,2.80
2023-01-23T11:49:35.060Z,2.90
2023-01-23T11:54:44.073Z,3.10
2023-01-23T12:00:14.417Z,3.10
2023-01-23T12:05:56.867Z,3.10
2023-01-23T12:11:16.409Z,3.20
2023-01-23T12:16:32.580Z,3.20
2023-01-23T12:22:03.683Z,3.20
2023-01-23T12:27:13.842Z,3.20
2023-01-23T12:32:25.285Z,3.20
2023-01-23T12:37:38.478Z,3.20
2023-01-23T12:43:09.224Z,3.20
2023-01-23T12:48:13.815Z,3.20
2023-01-23T12:53:25.147Z,3.30
2023-01-23T12:58:30.108Z,3.30
2023-01-23T13:04:00.435Z,3.30
2023-01-23T13:09:18.955Z,3.40
2023-01-23T13:14:29.135Z,3.40
2023-01-23T13:20:00.551Z,3.30
2023-01-23T13:25:13.375Z,3.30
2023-01-23T13:30:27.189Z,3.40
2023-01-23T13:35:44.627Z,3.40
2023-01-23T13:41:11.447Z,3.40
2023-01-23T13:46:23.951Z,3.50
2023-01-23T14:24:03.898Z,3.30
2023-01-23T14:29:24.523Z,3.40
2023-01-23T14:34:27.064Z,3.30
2023-01-23T14:39:31.293Z,3.30
2023-01-23T14:44:42.104Z,3.30
2023-01-23T14:49:47.227Z,3.30
2023-01-23T14:54:54.198Z,3.20
2023-01-23T14:59:58.121Z,3.20
2023-01-23T15:05:12.206Z,3.20
2023-01-23T15:10:26.000Z,3.10
2023-01-23T15:15:28.757Z,3.10
2023-01-23T15:20:41.202Z,3.10
2023-01-23T15:25:43.273Z,3.10
2023-01-23T15:30:48.408Z,3.10
2023-01-23T15:35:50.539Z,3.10
2023-01-23T15:40:52.328Z,3.10
2023-01-23T15:45:54.295Z,3.00
2023-01-23T15:50:56.282Z,3.00
2023-01-23T15:55:58.063Z,3.00
2023-01-23T16:00:59.880Z,2.90
2023-01-23T16:06:01.783Z,2.90
2023-01-23T16:11:03.607Z,2.90
2023-01-23T16:16:15.789Z,2.90
2023-01-23T16:21:19.740Z,2.90
2023-01-23T16:26:25.521Z,2.80
2023-01-23T16:31:27.451Z,2.90
2023-01-23T16:36:29.903Z,2.80
2023-01-23T16:41:31.771Z,2.80
2023-01-23T16:46:33.566Z,2.80
2023-01-23T16:51:36.315Z,2.80
2023-01-23T16:56:40.825Z,2.80
2023-01-23T17:01:45.497Z,2.80
2023-01-23T17:06:48.216Z,2.70
2023-01-23T17:11:57.231Z,2.80
2023-01-23T17:17:07.577Z,2.80
2023-01-23T17:22:23.427Z,2.90
2023-01-23T17:27:25.349Z,2.80
2023-01-23T17:32:35.589Z,2.80
2023-01-23T17:37:37.482Z,2.80
2023-01-23T17:42:39.581Z,2.80
2023-01-23T17:47:47.794Z,2.80
2023-01-23T17:52:51.536Z,2.80
2023-01-23T17:57:53.409Z,2.70
2023-01-23T18:03:00.671Z,2.70
2023-01-23T18:08:02.476Z,2.80
2023-01-23T18:13:14.526Z,2.80
2023-01-23T18:18:30.999Z,2.80
2023-01-23T18:23:37.021Z,2.70
2023-01-23T18:28:45.161Z,2.80
2023-01-23T18:33:58.115Z,2.80
2023-01-23T18:39:20.390Z,2.80
2023-01-23T18:44:26.515Z,2.80
2023-01-23T18:49:32.889Z,2.70
2023-01-23T18:55:05.450Z,2.70
2023-01-23T19:00:15.462Z,2.70
2023-01-23T19:05:30.881Z,2.70
2023-01-23T19:10:48.531Z,2.70
2023-01-23T19:16:13.236Z,2.70
2023-01-23T19:21:25.104Z,2.70
2023-01-23T19:26:30.008Z,2.70
2023-01-23T19:31:34.674Z,2.70
2023-01-23T19:36:38.408Z,2.80
2023-01-23T19:41:48.670Z,2.70
2023-01-23T19:46:53.951Z,2.70
2023-01-23T19:51:55.817Z,2.70
2023-01-23T19:56:57.683Z,2.80
2023-01-23T20:01:59.970Z,2.80
2023-01-23T20:07:01.903Z,2.80
2023-01-23T20:12:04.287Z,2.80
2023-01-23T20:17:06.096Z,2.80
2023-01-23T20:22:07.965Z,2.80
2023-01-23T20:27:10.116Z,2.80
2023-01-23T20:32:12.279Z,2.80
2023-01-23T20:37:14.424Z,2.80
2023-01-23T20:42:16.459Z,2.80
2023-01-23T20:47:18.449Z,2.70
2023-01-23T20:52:38.884Z,2.80
2023-01-23T20:57:59.306Z,2.80
2023-01-23T21:03:01.245Z,2.80
2023-01-23T21:08:03.088Z,2.80
2023-01-23T21:13:05.163Z,2.80
2023-01-23T21:18:07.085Z,2.80
2023-01-23T21:23:08.937Z,2.80
2023-01-23T21:28:10.828Z,2.80
2023-01-23T21:33:12.821Z,2.80
2023-01-23T21:38:14.614Z,2.80
2023-01-23T21:43:16.499Z,2.80
2023-01-23T21:48:18.315Z,2.90
2023-01-23T21:53:20.218Z,2.90
2023-01-23T21:58:22.015Z,2.80
2023-01-23T22:03:23.829Z,2.70
2023-01-23T22:08:25.642Z,2.70
2023-01-23T22:13:27.758Z,2.70
2023-01-23T22:18:30.357Z,2.70
2023-01-23T22:23:32.957Z,2.70
2023-01-23T22:28:35.263Z,2.70
2023-01-23T22:33:43.022Z,2.80
2023-01-23T22:38:50.090Z,2.80
2023-01-23T22:43:56.443Z,2.70
2023-01-23T22:48:58.294Z,2.70
2023-01-23T22:54:00.269Z,2.70
2023-01-23T22:59:02.291Z,2.80
2023-01-23T23:04:04.211Z,2.60
2023-01-23T23:09:06.038Z,2.70
2023-01-23T23:14:09.001Z,2.70
2023-01-23T23:19:11.026Z,2.80
2023-01-23T23:24:14.004Z,2.70
2023-01-23T23:29:16.806Z,2.70
2023-01-23T23:34:19.602Z,2.70
2023-01-23T23:39:21.419Z,2.70
2023-01-23T23:44:23.203Z,2.70
2023-01-23T23:49:26.446Z,2.70
2023-01-23T23:54:28.388Z,2.70
2023-01-23T23:59:30.207Z,2.70
